createdAt,value
2018-02-11T00:01:06.380Z,-1.82
2018-02-11T00:02:16.095Z,-1.86
2018-02-11T00:03:26.077Z,-1.86
2018-02-11T00:04:36.109Z,-1.87
2018-02-11T00:05:46.093Z,-1.79
2018-02-11T00:06:55.805Z,-1.84
2018-02-11T00:08:05.791Z,-1.92
2018-02-11T00:09:15.291Z,-1.87
2018-02-11T00:10:25.276Z,-1.96
2018-02-11T00:11:34.992Z,-1.84
2018-02-11T00:12:44.489Z,-1.9
2018-02-11T00:13:54.213Z,-1.9
2018-02-11T00:15:03.977Z,-1.94
2018-02-11T00:16:13.423Z,-1.94
2018-02-11T00:17:23.407Z,-1.86
2018-02-11T00:18:33.384Z,-2
2018-02-11T00:19:43.365Z,-1.89
2018-02-11T00:20:53.339Z,-1.89
2018-02-11T00:22:02.791Z,-1.9
2018-02-11T00:23:12.504Z,-1.87
2018-02-11T00:24:22.482Z,-1.9
2018-02-11T00:25:32.199Z,-1.89
2018-02-11T00:26:42.182Z,-1.92
2018-02-11T00:27:52.161Z,-1.92
2018-02-11T00:29:02.142Z,-1.92
2018-02-11T00:30:12.132Z,-1.93
2018-02-11T00:31:22.107Z,-1.87
2018-02-11T00:32:31.555Z,-1.92
2018-02-11T00:33:41.006Z,-1.89
2018-02-11T00:34:50.992Z,-1.94
2018-02-11T00:36:00.444Z,-1.94
2018-02-11T00:37:10.419Z,-1.94
2018-02-11T00:38:20.139Z,-1.87
2018-02-11T00:39:29.854Z,-1.84
2018-02-11T00:40:39.830Z,-1.78
2018-02-11T00:41:49.809Z,-1.75
2018-02-11T00:42:59.785Z,-1.74
2018-02-11T00:44:09.503Z,-1.69
2018-02-11T00:45:19.482Z,-1.72
2018-02-11T00:46:28.928Z,-1.75
2018-02-11T00:47:38.643Z,-1.72
2018-02-11T00:48:48.624Z,-1.75
2018-02-11T00:49:58.335Z,-1.63
2018-02-11T00:51:07.788Z,-1.63
2018-02-11T00:52:17.818Z,-1.61
2018-02-11T00:53:27.532Z,-1.64
2018-02-11T00:54:37.248Z,-1.63
2018-02-11T00:55:47.327Z,-1.64
2018-02-11T00:56:57.312Z,-1.64
2018-02-11T00:58:07.024Z,-1.61
2018-02-11T00:59:17.005Z,-1.61
2018-02-11T01:00:26.715Z,-1.58
2018-02-11T01:01:36.701Z,-1.68
2018-02-11T01:02:46.683Z,-1.6
2018-02-11T01:03:56.673Z,-1.56
2018-02-11T01:05:06.127Z,-1.53
2018-02-11T01:06:16.111Z,-1.46
2018-02-11T01:07:25.829Z,-1.4
2018-02-11T01:08:35.549Z,-1.45
2018-02-11T01:09:45.258Z,-1.5
2018-02-11T01:10:54.711Z,-1.5
2018-02-11T01:12:04.163Z,-1.4
2018-02-11T01:13:13.610Z,-1.42
2018-02-11T01:14:23.331Z,-1.42
2018-02-11T01:15:33.048Z,-1.36
2018-02-11T01:16:42.765Z,-1.45
2018-02-11T01:17:52.750Z,-1.39
2018-02-11T01:19:02.725Z,-1.42
2018-02-11T01:20:12.198Z,-1.45
2018-02-11T01:21:22.179Z,-1.39
2018-02-11T01:22:31.627Z,-1.4
2018-02-11T01:23:41.604Z,-1.38
2018-02-11T01:24:51.627Z,-1.39
2018-02-11T01:26:01.607Z,-1.42
2018-02-11T01:27:11.323Z,-1.45
2018-02-11T01:28:21.037Z,-1.45
2018-02-11T01:29:31.025Z,-1.45
2018-02-11T01:30:41.031Z,-1.42
2018-02-11T01:31:50.750Z,-1.43
2018-02-11T01:33:00.726Z,-1.43
2018-02-11T01:34:10.175Z,-1.5
2018-02-11T01:35:20.149Z,-1.45
2018-02-11T01:36:29.600Z,-1.45
2018-02-11T01:37:39.311Z,-1.43
2018-02-11T01:38:49.292Z,-1.43
2018-02-11T01:39:59.105Z,-1.4
2018-02-11T01:41:08.825Z,-1.45
2018-02-11T01:42:18.805Z,-1.48
2018-02-11T01:43:28.793Z,-1.48
2018-02-11T01:44:38.549Z,-1.42
2018-02-11T01:45:48.522Z,-1.42
2018-02-11T01:46:58.502Z,-1.42
2018-02-11T01:48:08.489Z,-1.48
2018-02-11T01:49:18.464Z,-1.48
2018-02-11T01:50:28.447Z,-1.53
2018-02-11T01:51:38.423Z,-1.43
2018-02-11T01:52:48.408Z,-1.43
2018-02-11T01:53:58.123Z,-1.39
2018-02-11T01:55:07.833Z,-1.56
2018-02-11T01:56:17.579Z,-1.45
2018-02-11T01:57:27.293Z,-1.45
2018-02-11T01:58:37.003Z,-1.51
2018-02-11T01:59:46.501Z,-1.53
2018-02-11T02:00:56.221Z,-1.43
2018-02-11T02:02:06.204Z,-1.56
2018-02-11T02:03:16.182Z,-1.53
2018-02-11T02:04:25.894Z,-1.45
2018-02-11T02:05:35.611Z,-1.58
2018-02-11T02:06:45.590Z,-1.48
2018-02-11T02:07:55.304Z,-1.54
2018-02-11T02:09:05.291Z,-1.5
2018-02-11T02:10:15.317Z,-1.53
2018-02-11T02:11:25.128Z,-1.46
2018-02-11T02:12:34.848Z,-1.64
2018-02-11T02:13:44.873Z,-1.57
2018-02-11T02:14:54.851Z,-1.68
2018-02-11T02:16:04.837Z,-1.66
2018-02-11T02:17:14.814Z,-1.68
2018-02-11T02:18:24.799Z,-1.66
2018-02-11T02:19:34.779Z,-1.68
2018-02-11T02:20:44.764Z,-1.64
2018-02-11T02:21:54.743Z,-1.66
2018-02-11T02:23:04.719Z,-1.63
2018-02-11T02:24:14.169Z,-1.66
2018-02-11T02:25:24.174Z,-1.69
2018-02-11T02:26:34.152Z,-1.63
2018-02-11T02:27:44.128Z,-1.71
2018-02-11T02:28:53.846Z,-1.69
2018-02-11T02:30:03.830Z,-1.69
2018-02-11T02:31:13.549Z,-1.63
2018-02-11T02:32:23.268Z,-1.69
2018-02-11T02:33:32.986Z,-1.64
2018-02-11T02:34:43.022Z,-1.66
2018-02-11T02:35:53.007Z,-1.74
2018-02-11T02:37:03.044Z,-1.72
2018-02-11T02:38:13.027Z,-1.63
2018-02-11T02:39:22.743Z,-1.68
2018-02-11T02:40:32.196Z,-1.71
2018-02-11T02:41:41.910Z,-1.71
2018-02-11T02:42:51.886Z,-1.79
2018-02-11T02:44:01.609Z,-1.71
2018-02-11T02:45:11.334Z,-1.71
2018-02-11T02:46:21.313Z,-1.72
2018-02-11T02:47:31.029Z,-1.63
2018-02-11T02:48:41.015Z,-1.71
2018-02-11T02:49:50.999Z,-1.66
2018-02-11T02:51:00.721Z,-1.6
2018-02-11T02:52:10.168Z,-1.64
2018-02-11T02:53:19.621Z,-1.64
2018-02-11T02:54:29.599Z,-1.66
2018-02-11T02:55:39.595Z,-1.64
2018-02-11T02:56:49.577Z,-1.54
2018-02-11T02:57:59.565Z,-1.57
2018-02-11T02:59:09.024Z,-1.6
2018-02-11T03:00:19.010Z,-1.5
2018-02-11T03:01:28.730Z,-1.58
2018-02-11T03:02:38.719Z,-1.54
2018-02-11T03:03:48.755Z,-1.54
2018-02-11T03:04:58.479Z,-1.53
2018-02-11T03:06:08.457Z,-1.48
2018-02-11T03:07:18.433Z,-1.5
2018-02-11T03:08:28.141Z,-1.5
2018-02-11T03:09:38.112Z,-1.45
2018-02-11T03:10:47.825Z,-1.54
2018-02-11T03:11:57.595Z,-1.5
2018-02-11T03:13:07.313Z,-1.45
2018-02-11T03:14:16.758Z,-1.48
2018-02-11T03:15:26.783Z,-1.46
2018-02-11T03:16:36.766Z,-1.46
2018-02-11T03:17:46.479Z,-1.43
2018-02-11T03:18:55.930Z,-1.56
2018-02-11T03:20:05.908Z,-1.46
2018-02-11T03:21:15.934Z,-1.53
2018-02-11T03:22:25.911Z,-1.53
2018-02-11T03:23:35.629Z,-1.56
2018-02-11T03:24:45.348Z,-1.45
2018-02-11T03:25:55.335Z,-1.51
2018-02-11T03:27:05.096Z,-1.54
2018-02-11T03:28:15.074Z,-1.5
2018-02-11T03:29:25.051Z,-1.46
2018-02-11T03:30:34.510Z,-1.46
2018-02-11T03:31:44.485Z,-1.4
2018-02-11T03:32:54.618Z,-1.39
2018-02-11T03:34:04.606Z,-1.43
2018-02-11T03:35:14.318Z,-1.42
2018-02-11T03:36:24.033Z,-1.42
2018-02-11T03:37:34.008Z,-1.43
2018-02-11T03:38:44.107Z,-1.4
2018-02-11T03:39:53.820Z,-1.45
2018-02-11T03:41:03.798Z,-1.48
2018-02-11T03:42:13.783Z,-1.48
2018-02-11T03:43:23.768Z,-1.43
2018-02-11T03:44:33.740Z,-1.45
2018-02-11T03:45:43.717Z,-1.48
2018-02-11T03:46:53.429Z,-1.51
2018-02-11T03:48:03.405Z,-1.43
2018-02-11T03:49:13.119Z,-1.45
2018-02-11T03:50:23.104Z,-1.46
2018-02-11T03:51:33.136Z,-1.43
2018-02-11T03:52:42.855Z,-1.51
2018-02-11T03:53:52.837Z,-1.54
2018-02-11T03:55:02.816Z,-1.56
2018-02-11T03:56:12.806Z,-1.48
2018-02-11T03:57:22.262Z,-1.48
2018-02-11T03:58:32.240Z,-1.46
2018-02-11T03:59:41.951Z,-1.46
2018-02-11T04:03:29.729Z,-1.57
2018-02-11T04:04:39.749Z,-1.68
2018-02-11T04:05:49.734Z,-1.68
2018-02-11T04:06:59.446Z,-1.66
2018-02-11T04:08:09.443Z,-1.66
2018-02-11T04:09:19.154Z,-1.6
2018-02-11T04:10:28.901Z,-1.58
2018-02-11T04:11:38.621Z,-1.61
2018-02-11T04:12:48.340Z,-1.57
2018-02-11T04:13:58.055Z,-1.63
2018-02-11T04:15:07.820Z,-1.61
2018-02-11T04:16:17.799Z,-1.57
2018-02-11T04:17:27.780Z,-1.68
2018-02-11T04:18:37.492Z,-1.64
2018-02-11T04:19:47.208Z,-1.64
2018-02-11T04:20:57.235Z,-1.57
2018-02-11T04:22:06.950Z,-1.6
2018-02-11T04:23:16.656Z,-1.56
2018-02-11T04:24:26.628Z,-1.51
2018-02-11T04:25:36.603Z,-1.48
2018-02-11T04:26:46.576Z,-1.57
2018-02-11T04:27:56.555Z,-1.57
2018-02-11T04:29:06.268Z,-1.5
2018-02-11T04:30:15.717Z,-1.51
2018-02-11T04:31:25.426Z,-1.56
2018-02-11T04:32:35.138Z,-1.56
2018-02-11T04:33:45.124Z,-1.46
2018-02-11T04:34:55.101Z,-1.46
2018-02-11T04:36:05.080Z,-1.43
2018-02-11T04:37:14.801Z,-1.45
2018-02-11T04:38:24.777Z,-1.48
2018-02-11T04:39:34.495Z,-1.43
2018-02-11T04:40:44.479Z,-1.42
2018-02-11T04:41:54.457Z,-1.39
2018-02-11T04:43:04.433Z,-1.48
2018-02-11T04:44:14.200Z,-1.48
2018-02-11T04:45:24.184Z,-1.56
2018-02-11T04:46:34.165Z,-1.46
2018-02-11T04:47:43.890Z,-1.53
2018-02-11T04:48:53.868Z,-1.53
2018-02-11T04:50:03.585Z,-1.53
2018-02-11T04:51:13.308Z,-1.48
2018-02-11T04:52:23.020Z,-1.48
2018-02-11T04:53:32.741Z,-1.5
2018-02-11T04:54:42.454Z,-1.56
2018-02-11T04:55:52.164Z,-1.53
2018-02-11T04:57:01.882Z,-1.6
2018-02-11T04:58:11.862Z,-1.63
2018-02-11T04:59:21.580Z,-1.61
2018-02-11T05:00:31.559Z,-1.68
2018-02-11T05:01:41.541Z,-1.64
2018-02-11T05:02:51.259Z,-1.61
2018-02-11T05:04:00.973Z,-1.6
2018-02-11T05:05:10.690Z,-1.58
2018-02-11T05:06:20.402Z,-1.64
2018-02-11T05:07:29.951Z,-1.69
2018-02-11T05:08:39.931Z,-1.61
2018-02-11T05:09:49.648Z,-1.6
2018-02-11T05:10:59.626Z,-1.68
2018-02-11T05:12:09.613Z,-1.64
2018-02-11T05:13:19.692Z,-1.6
2018-02-11T05:14:28.878Z,-1.64
2018-02-11T05:15:38.595Z,-1.63
2018-02-11T05:16:48.323Z,-1.63
2018-02-11T05:17:58.301Z,-1.68
2018-02-11T05:19:08.288Z,-1.69
2018-02-11T05:20:18.280Z,-1.64
2018-02-11T05:21:28.308Z,-1.68
2018-02-11T05:22:38.335Z,-1.69
2018-02-11T05:23:48.325Z,-1.69
2018-02-11T05:24:58.310Z,-1.68
2018-02-11T05:26:08.033Z,-1.6
2018-02-11T05:27:17.744Z,-1.66
2018-02-11T05:28:27.195Z,-1.61
2018-02-11T05:29:36.642Z,-1.64
2018-02-11T05:30:46.407Z,-1.6
2018-02-11T05:31:56.384Z,-1.57
2018-02-11T05:33:06.369Z,-1.64
2018-02-11T05:34:16.082Z,-1.64
2018-02-11T05:35:25.789Z,-1.58
2018-02-11T05:36:35.615Z,-1.58
2018-02-11T05:37:45.326Z,-1.68
2018-02-11T05:38:55.306Z,-1.58
2018-02-11T05:40:05.021Z,-1.56
2018-02-11T05:41:14.746Z,-1.56
2018-02-11T05:42:24.517Z,-1.48
2018-02-11T05:43:33.970Z,-1.58
2018-02-11T05:44:43.955Z,-1.61
2018-02-11T05:45:53.678Z,-1.64
2018-02-11T05:47:03.391Z,-1.54
2018-02-11T05:48:13.106Z,-1.63
2018-02-11T05:49:23.086Z,-1.66
2018-02-11T05:50:32.542Z,-1.64
2018-02-11T05:51:42.255Z,-1.57
2018-02-11T05:52:52.233Z,-1.58
2018-02-11T05:54:02.212Z,-1.56
2018-02-11T05:55:12.227Z,-1.53
2018-02-11T05:56:21.673Z,-1.46
2018-02-11T05:57:31.419Z,-1.53
2018-02-11T05:58:41.127Z,-1.58
2018-02-11T05:59:51.102Z,-1.42
2018-02-11T06:01:00.870Z,-1.56
2018-02-11T06:02:10.584Z,-1.53
2018-02-11T06:03:20.031Z,-1.45
2018-02-11T06:04:30.010Z,-1.48
2018-02-11T06:05:39.987Z,-1.53
2018-02-11T06:06:49.981Z,-1.42
2018-02-11T06:07:59.961Z,-1.48
2018-02-11T06:09:09.678Z,-1.43
2018-02-11T06:10:19.660Z,-1.57
2018-02-11T06:11:29.641Z,-1.54
2018-02-11T06:12:39.620Z,-1.48
2018-02-11T06:13:49.341Z,-1.51
2018-02-11T06:14:59.362Z,-1.45
2018-02-11T06:16:08.831Z,-1.54
2018-02-11T06:17:18.819Z,-1.53
2018-02-11T06:18:28.532Z,-1.5
2018-02-11T06:19:38.243Z,-1.53
2018-02-11T06:20:48.227Z,-1.45
2018-02-11T06:21:57.940Z,-1.46
2018-02-11T06:23:07.665Z,-1.53
2018-02-11T06:24:17.641Z,-1.45
2018-02-11T06:25:27.353Z,-1.53
2018-02-11T06:26:37.072Z,-1.48
2018-02-11T06:27:47.050Z,-1.43
2018-02-11T06:28:56.818Z,-1.42
2018-02-11T06:30:06.798Z,-1.42
2018-02-11T06:31:16.245Z,-1.4
2018-02-11T06:32:26.227Z,-1.53
2018-02-11T06:33:35.411Z,-1.39
2018-02-11T06:34:45.117Z,-1.42
2018-02-11T06:35:54.833Z,-1.38
2018-02-11T06:37:04.814Z,-1.35
2018-02-11T06:38:14.793Z,-1.36
2018-02-11T06:39:23.978Z,-1.4
2018-02-11T06:40:34.007Z,-1.4
2018-02-11T06:41:43.983Z,-1.45
2018-02-11T06:42:53.957Z,-1.35
2018-02-11T06:44:03.934Z,-1.3
2018-02-11T06:45:13.910Z,-1.43
2018-02-11T06:46:23.888Z,-1.42
2018-02-11T06:47:33.921Z,-1.35
2018-02-11T06:48:43.900Z,-1.39
2018-02-11T06:49:53.876Z,-1.33
2018-02-11T06:51:03.864Z,-1.38
2018-02-11T06:52:13.848Z,-1.42
2018-02-11T06:53:23.825Z,-1.43
2018-02-11T06:54:33.806Z,-1.42
2018-02-11T06:55:43.787Z,-1.43
2018-02-11T06:56:53.764Z,-1.53
2018-02-11T06:58:03.743Z,-1.5
2018-02-11T06:59:13.726Z,-1.48
2018-02-11T07:00:23.717Z,-1.54
2018-02-11T07:01:33.696Z,-1.45
2018-02-11T07:02:43.405Z,-1.45
2018-02-11T07:03:53.167Z,-1.53
2018-02-11T07:05:02.883Z,-1.51
2018-02-11T07:06:12.330Z,-1.53
2018-02-11T07:07:22.045Z,-1.61
2018-02-11T07:08:31.491Z,-1.64
2018-02-11T07:09:41.470Z,-1.64
2018-02-11T07:10:51.207Z,-1.61
2018-02-11T07:12:00.928Z,-1.54
2018-02-11T07:13:10.919Z,-1.51
2018-02-11T07:14:20.900Z,-1.57
2018-02-11T07:15:30.663Z,-1.46
2018-02-11T07:16:40.657Z,-1.58
2018-02-11T07:17:50.749Z,-1.46
2018-02-11T07:19:00.198Z,-1.48
2018-02-11T07:20:10.173Z,-1.45
2018-02-11T07:21:20.153Z,-1.46
2018-02-11T07:22:29.870Z,-1.46
2018-02-11T07:23:39.316Z,-1.42
2018-02-11T07:24:49.305Z,-1.45
2018-02-11T07:25:59.022Z,-1.45
2018-02-11T07:27:08.998Z,-1.57
2018-02-11T07:28:18.973Z,-1.4
2018-02-11T07:29:28.689Z,-1.45
2018-02-11T07:30:38.665Z,-1.45
2018-02-11T07:31:48.381Z,-1.45
2018-02-11T07:32:58.417Z,-1.42
2018-02-11T07:34:08.134Z,-1.42
2018-02-11T07:35:17.857Z,-1.53
2018-02-11T07:36:27.308Z,-1.46
2018-02-11T07:37:36.757Z,-1.58
2018-02-11T07:38:46.470Z,-1.43
2018-02-11T07:39:56.194Z,-1.46
2018-02-11T07:41:06.178Z,-1.42
2018-02-11T07:42:15.895Z,-1.43
2018-02-11T07:43:25.607Z,-1.39
2018-02-11T07:44:35.331Z,-1.42
2018-02-11T07:45:45.306Z,-1.48
2018-02-11T07:46:55.288Z,-1.39
2018-02-11T07:48:04.474Z,-1.45
2018-02-11T07:49:14.457Z,-1.39
2018-02-11T07:50:24.010Z,-1.42
2018-02-11T07:51:33.989Z,-1.39
2018-02-11T07:52:43.717Z,-1.45
2018-02-11T07:53:53.691Z,-1.35
2018-02-11T07:55:03.673Z,-1.42
2018-02-11T07:56:13.231Z,-1.39
2018-02-11T07:57:22.952Z,-1.25
2018-02-11T07:58:32.692Z,-1.32
2018-02-11T07:59:42.666Z,-1.27
2018-02-11T08:00:52.649Z,-1.27
2018-02-11T08:02:02.366Z,-1.29
2018-02-11T08:03:12.086Z,-1.18
2018-02-11T08:04:21.799Z,-1.22
2018-02-11T08:05:31.781Z,-1.22
2018-02-11T08:06:40.970Z,-1.17
2018-02-11T08:07:50.956Z,-1.07
2018-02-11T08:09:00.677Z,-1.12
2018-02-11T08:10:10.134Z,-1.07
2018-02-11T08:11:19.845Z,-1.14
2018-02-11T08:12:29.293Z,-1.04
2018-02-11T08:13:39.331Z,-0.99
2018-02-11T08:14:49.314Z,-0.94
2018-02-11T08:15:59.315Z,-0.96
2018-02-11T08:17:09.296Z,-0.93
2018-02-11T08:18:19.276Z,-0.93
2018-02-11T08:19:29.255Z,-0.84
2018-02-11T08:20:38.704Z,-0.84
2018-02-11T08:21:48.423Z,-0.75
2018-02-11T08:22:58.139Z,-0.8
2018-02-11T08:24:08.173Z,-0.75
2018-02-11T08:25:18.162Z,-0.78
2018-02-11T08:26:28.229Z,-0.7
2018-02-11T08:27:38.220Z,-0.69
2018-02-11T08:28:48.198Z,-0.56
2018-02-11T08:29:57.915Z,-0.57
2018-02-11T08:31:07.900Z,-0.64
2018-02-11T08:32:17.883Z,-0.53
2018-02-11T08:33:27.865Z,-0.54
2018-02-11T08:34:37.850Z,-0.46
2018-02-11T08:35:47.564Z,-0.51
2018-02-11T08:36:57.283Z,-0.49
2018-02-11T08:38:07.002Z,-0.49
2018-02-11T08:39:16.451Z,-0.41
2018-02-11T08:40:26.166Z,-0.38
2018-02-11T08:41:35.910Z,-0.49
2018-02-11T08:42:45.676Z,-0.41
2018-02-11T08:43:55.665Z,-0.46
2018-02-11T08:45:05.121Z,-0.44
2018-02-11T08:46:15.099Z,-0.48
2018-02-11T08:47:24.814Z,-0.44
2018-02-11T08:48:34.846Z,-0.44
2018-02-11T08:49:44.302Z,-0.46
2018-02-11T08:50:54.029Z,-0.46
2018-02-11T08:52:04.019Z,-0.51
2018-02-11T08:53:13.999Z,-0.46
2018-02-11T08:54:23.723Z,-0.49
2018-02-11T08:55:33.699Z,-0.51
2018-02-11T08:56:43.676Z,-0.54
2018-02-11T08:57:53.705Z,-0.49
2018-02-11T08:59:03.416Z,-0.54
2018-02-11T09:00:12.868Z,-0.6
2018-02-11T09:01:22.848Z,-0.63
2018-02-11T09:02:32.568Z,-0.6
2018-02-11T09:03:42.295Z,-0.54
2018-02-11T09:04:52.018Z,-0.63
2018-02-11T09:06:01.994Z,-0.6
2018-02-11T09:07:12.011Z,-0.59
2018-02-11T09:08:21.737Z,-0.57
2018-02-11T09:09:31.715Z,-0.62
2018-02-11T09:10:41.164Z,-0.63
2018-02-11T09:11:50.886Z,-0.62
2018-02-11T09:13:00.870Z,-0.57
2018-02-11T09:14:10.327Z,-0.59
2018-02-11T09:15:20.303Z,-0.56
2018-02-11T09:16:29.757Z,-0.64
2018-02-11T09:17:39.205Z,-0.72
2018-02-11T09:18:48.922Z,-0.7
2018-02-11T09:19:58.903Z,-0.64
2018-02-11T09:21:08.888Z,-0.64
2018-02-11T09:22:18.876Z,-0.72
2018-02-11T09:23:28.649Z,-0.77
2018-02-11T09:24:38.633Z,-0.66
2018-02-11T09:25:48.624Z,-0.77
2018-02-11T09:26:58.348Z,-0.75
2018-02-11T09:28:08.067Z,-1
2018-02-11T09:29:17.778Z,-0.89
2018-02-11T09:30:27.763Z,-0.89
2018-02-11T09:31:37.478Z,-0.77
2018-02-11T09:32:47.249Z,-0.85
2018-02-11T09:33:56.966Z,-0.87
2018-02-11T09:35:06.960Z,-0.84
2018-02-11T09:36:16.676Z,-0.84
2018-02-11T09:37:26.130Z,-0.91
2018-02-11T09:38:35.859Z,-1
2018-02-11T09:39:45.938Z,-0.99
2018-02-11T09:40:55.439Z,-0.94
2018-02-11T09:42:05.421Z,-1.04
2018-02-11T09:43:14.877Z,-1.01
2018-02-11T09:44:24.868Z,-1.06
2018-02-11T09:45:34.843Z,-1.09
2018-02-11T09:46:44.820Z,-1.14
2018-02-11T09:47:54.268Z,-1.15
2018-02-11T09:49:04.244Z,-1.21
2018-02-11T09:50:14.227Z,-1.18
2018-02-11T09:51:23.715Z,-1.17
2018-02-11T09:52:33.164Z,-1.17
2018-02-11T09:53:42.883Z,-1.19
2018-02-11T09:54:52.600Z,-1.17
2018-02-11T09:56:02.052Z,-1.19
2018-02-11T09:57:11.235Z,-1.15
2018-02-11T09:58:21.224Z,-1.17
2018-02-11T09:59:31.202Z,-1.15
2018-02-11T10:00:40.654Z,-1.19
2018-02-11T10:01:50.643Z,-1.19
2018-02-11T10:03:00.090Z,-1.3
2018-02-11T10:04:09.544Z,-1.32
2018-02-11T10:05:19.528Z,-1.29
2018-02-11T10:06:29.251Z,-1.3
2018-02-11T10:07:39.048Z,-1.27
2018-02-11T10:08:48.764Z,-1.25
2018-02-11T10:09:58.742Z,-1.25
2018-02-11T10:11:08.459Z,-1.3
2018-02-11T10:12:17.918Z,-1.38
2018-02-11T10:13:27.893Z,-1.33
2018-02-11T10:14:37.347Z,-1.42
2018-02-11T10:15:47.325Z,-1.35
2018-02-11T10:16:57.046Z,-1.35
2018-02-11T10:18:07.028Z,-1.4
2018-02-11T10:19:16.739Z,-1.35
2018-02-11T10:20:26.457Z,-1.39
2018-02-11T10:21:35.964Z,-1.38
2018-02-11T10:22:45.681Z,-1.39
2018-02-11T10:23:55.396Z,-1.39
2018-02-11T10:25:05.375Z,-1.38
2018-02-11T10:26:14.826Z,-1.43
2018-02-11T10:27:24.855Z,-1.4
2018-02-11T10:28:34.871Z,-1.56
2018-02-11T10:29:44.856Z,-1.46
2018-02-11T10:30:54.833Z,-1.5
2018-02-11T10:32:04.599Z,-1.45
2018-02-11T10:33:14.150Z,-1.45
2018-02-11T10:34:23.600Z,-1.51
2018-02-11T10:35:33.314Z,-1.43
2018-02-11T10:36:43.028Z,-1.48
2018-02-11T10:37:53.007Z,-1.48
2018-02-11T10:39:02.721Z,-1.5
2018-02-11T10:40:12.436Z,-1.48
2018-02-11T10:41:22.150Z,-1.46
2018-02-11T10:42:32.124Z,-1.43
2018-02-11T10:43:41.844Z,-1.45
2018-02-11T10:44:51.610Z,-1.39
2018-02-11T10:46:01.585Z,-1.42
2018-02-11T10:47:11.620Z,-1.39
2018-02-11T10:48:21.608Z,-1.39
2018-02-11T10:49:31.331Z,-1.42
2018-02-11T10:50:41.410Z,-1.43
2018-02-11T10:51:51.402Z,-1.48
2018-02-11T10:53:01.384Z,-1.42
2018-02-11T10:54:11.368Z,-1.4
2018-02-11T10:55:20.817Z,-1.4
2018-02-11T10:56:30.796Z,-1.38
2018-02-11T10:57:40.511Z,-1.43
2018-02-11T10:58:50.223Z,-1.43
2018-02-11T10:59:59.940Z,-1.5
2018-02-11T11:01:09.924Z,-1.39
2018-02-11T11:02:19.690Z,-1.43
2018-02-11T11:03:29.139Z,-1.42
2018-02-11T11:04:39.118Z,-1.39
2018-02-11T11:05:48.826Z,-1.42
2018-02-11T11:06:58.540Z,-1.45
2018-02-11T11:08:08.268Z,-1.4
2018-02-11T11:09:17.981Z,-1.42
2018-02-11T11:10:27.972Z,-1.42
2018-02-11T11:11:37.964Z,-1.46
2018-02-11T11:12:47.430Z,-1.43
2018-02-11T11:13:57.148Z,-1.39
2018-02-11T11:15:07.124Z,-1.48
2018-02-11T11:16:16.631Z,-1.42
2018-02-11T11:17:26.608Z,-1.56
2018-02-11T11:18:36.317Z,-1.48
2018-02-11T11:19:46.296Z,-1.48
2018-02-11T11:20:56.329Z,-1.5
2018-02-11T11:22:06.114Z,-1.48
2018-02-11T11:23:16.096Z,-1.54
2018-02-11T11:24:26.083Z,-1.53
2018-02-11T11:25:36.060Z,-1.56
2018-02-11T11:26:46.098Z,-1.57
2018-02-11T11:27:56.130Z,-1.6
2018-02-11T11:29:06.118Z,-1.54
2018-02-11T11:30:15.588Z,-1.6
2018-02-11T11:31:25.619Z,-1.57
2018-02-11T11:32:35.622Z,-1.53
2018-02-11T11:33:45.599Z,-1.56
2018-02-11T11:34:55.314Z,-1.57
2018-02-11T11:36:05.292Z,-1.54
2018-02-11T11:37:14.748Z,-1.57
2018-02-11T11:38:24.738Z,-1.54
2018-02-11T11:39:34.194Z,-1.48
2018-02-11T11:40:43.906Z,-1.57
2018-02-11T11:41:53.932Z,-1.56
2018-02-11T11:43:03.695Z,-1.56
2018-02-11T11:44:13.406Z,-1.53
2018-02-11T11:45:23.389Z,-1.51
2018-02-11T11:46:33.385Z,-1.53
2018-02-11T11:47:43.384Z,-1.56
2018-02-11T11:48:53.369Z,-1.56
2018-02-11T11:50:03.351Z,-1.48
2018-02-11T11:51:12.269Z,-1.5
2018-02-11T11:52:22.251Z,-1.45
2018-02-11T11:53:32.235Z,-1.46
2018-02-11T11:54:42.216Z,-1.48
2018-02-11T11:55:51.933Z,-1.43
2018-02-11T11:57:01.374Z,-1.46
2018-02-11T11:58:10.825Z,-1.45
2018-02-11T11:59:20.804Z,-1.42
2018-02-11T12:00:30.254Z,-1.4
2018-02-11T12:01:39.701Z,-1.54
2018-02-11T12:02:49.417Z,-1.43
2018-02-11T12:03:59.393Z,-1.46
2018-02-11T12:05:09.104Z,-1.39
2018-02-11T12:06:19.085Z,-1.46
2018-02-11T12:07:28.797Z,-1.46
2018-02-11T12:08:38.778Z,-1.5
2018-02-11T12:09:48.762Z,-1.43
2018-02-11T12:10:58.480Z,-1.5
2018-02-11T12:12:08.245Z,-1.43
2018-02-11T12:13:18.014Z,-1.5
2018-02-11T12:14:27.464Z,-1.42
2018-02-11T12:15:36.913Z,-1.43
2018-02-11T12:16:46.626Z,-1.48
2018-02-11T12:17:56.603Z,-1.43
2018-02-11T12:19:06.583Z,-1.48
2018-02-11T12:20:16.567Z,-1.54
2018-02-11T12:21:26.610Z,-1.51
2018-02-11T12:22:36.054Z,-1.51
2018-02-11T12:23:46.033Z,-1.54
2018-02-11T12:24:56.014Z,-1.5
2018-02-11T12:26:05.993Z,-1.43
2018-02-11T12:27:15.708Z,-1.35
2018-02-11T12:28:25.422Z,-1.46
2018-02-11T12:29:34.871Z,-1.42
2018-02-11T12:30:44.851Z,-1.42
2018-02-11T12:31:54.566Z,-1.4
2018-02-11T12:33:04.548Z,-1.39
2018-02-11T12:34:14.265Z,-1.45
2018-02-11T12:35:23.974Z,-1.43
2018-02-11T12:36:33.947Z,-1.46
2018-02-11T12:37:42.871Z,-1.45
2018-02-11T12:38:52.851Z,-1.46
2018-02-11T12:40:02.040Z,-1.4
2018-02-11T12:41:11.812Z,-1.45
2018-02-11T12:42:21.596Z,-1.53
2018-02-11T12:43:31.309Z,-1.54
2018-02-11T12:44:40.756Z,-1.54
2018-02-11T12:45:50.547Z,-1.46
2018-02-11T12:47:00.269Z,-1.53
2018-02-11T12:48:10.254Z,-1.61
2018-02-11T12:49:19.963Z,-1.68
2018-02-11T12:50:29.939Z,-1.58
2018-02-11T12:51:39.917Z,-1.56
2018-02-11T12:52:49.902Z,-1.6
2018-02-11T12:53:59.613Z,-1.58
2018-02-11T12:55:08.798Z,-1.6
2018-02-11T12:56:18.778Z,-1.6
2018-02-11T12:57:28.507Z,-1.54
2018-02-11T12:58:38.542Z,-1.6
2018-02-11T12:59:48.573Z,-1.6
2018-02-11T13:00:58.286Z,-1.57
2018-02-11T13:02:08.002Z,-1.63
2018-02-11T13:03:17.721Z,-1.64
2018-02-11T13:04:27.705Z,-1.64
2018-02-11T13:05:37.686Z,-1.63
2018-02-11T13:06:47.404Z,-1.57
2018-02-11T13:07:57.420Z,-1.75
2018-02-11T13:09:06.872Z,-1.76
2018-02-11T13:10:16.326Z,-1.75
2018-02-11T13:11:26.041Z,-1.78
2018-02-11T13:12:36.025Z,-1.75
2018-02-11T13:13:45.891Z,-1.79
2018-02-11T13:14:55.604Z,-1.79
2018-02-11T13:16:05.331Z,-1.78
2018-02-11T13:17:15.311Z,-1.86
2018-02-11T13:18:25.290Z,-1.79
2018-02-11T13:19:35.288Z,-1.79
2018-02-11T13:20:45.262Z,-1.87
2018-02-11T13:21:55.340Z,-1.92
2018-02-11T13:23:05.120Z,-1.87
2018-02-11T13:24:14.568Z,-1.89
2018-02-11T13:25:24.284Z,-1.93
2018-02-11T13:26:33.735Z,-1.9
2018-02-11T13:27:43.446Z,-1.96
2018-02-11T13:28:53.429Z,-1.92
2018-02-11T13:30:02.879Z,-1.93
2018-02-11T13:31:12.333Z,-2.07
2018-02-11T13:32:22.054Z,-1.92
2018-02-11T13:33:31.783Z,-1.99
2018-02-11T13:34:41.495Z,-1.99
2018-02-11T13:35:51.474Z,-2.07
2018-02-11T13:37:01.193Z,-2.02
2018-02-11T13:38:10.915Z,-2.05
2018-02-11T13:39:20.889Z,-2.02
2018-02-11T13:40:30.342Z,-2.05
2018-02-11T13:41:39.813Z,-2.04
2018-02-11T13:42:49.003Z,-2.05
2018-02-11T13:43:58.720Z,-2.11
2018-02-11T13:45:08.429Z,-2.15
2018-02-11T13:46:18.407Z,-2.1
2018-02-11T13:47:28.131Z,-2.08
2018-02-11T13:48:37.591Z,-2.13
2018-02-11T13:49:47.308Z,-2.15
2018-02-11T13:50:57.398Z,-2.15
2018-02-11T13:52:07.117Z,-2.14
2018-02-11T13:53:16.646Z,-2.17
2018-02-11T13:54:26.632Z,-2.17
2018-02-11T13:55:36.345Z,-2.32
2018-02-11T13:56:46.064Z,-2.33
2018-02-11T13:57:55.781Z,-2.33
2018-02-11T13:59:05.232Z,-2.36
2018-02-11T14:00:14.681Z,-2.36
2018-02-11T14:01:24.657Z,-2.29
2018-02-11T14:02:34.426Z,-2.39
2018-02-11T14:03:44.404Z,-2.39
2018-02-11T14:04:54.124Z,-2.29
2018-02-11T14:06:03.841Z,-2.32
2018-02-11T14:07:13.556Z,-2.26
2018-02-11T14:08:23.573Z,-2.26
2018-02-11T14:09:33.296Z,-2.23
2018-02-11T14:10:43.279Z,-2.18
2018-02-11T14:11:53.259Z,-2.25
2018-02-11T14:13:03.233Z,-2.13
2018-02-11T14:14:12.723Z,-2.14
2018-02-11T14:15:22.700Z,-2.1
2018-02-11T14:16:32.677Z,-2
2018-02-11T14:17:42.661Z,-2.08
2018-02-11T14:18:52.642Z,-1.97
2018-02-11T14:20:02.413Z,-1.97
2018-02-11T14:21:12.132Z,-2.04
2018-02-11T14:22:22.110Z,-2.02
2018-02-11T14:23:32.091Z,-2.05
2018-02-11T14:24:42.067Z,-2.05
2018-02-11T14:25:51.514Z,-2.05
2018-02-11T14:27:01.584Z,-2.17
2018-02-11T14:28:11.600Z,-2.11
2018-02-11T14:29:21.050Z,-2.08
2018-02-11T14:30:31.038Z,-2.02
2018-02-11T14:31:40.750Z,-2.04
2018-02-11T14:32:50.198Z,-2.05
2018-02-11T14:34:00.173Z,-2.05
2018-02-11T14:35:09.895Z,-2.02
2018-02-11T14:36:19.877Z,-2.02
2018-02-11T14:37:29.728Z,-2.05
2018-02-11T14:38:39.466Z,-2
2018-02-11T14:39:49.177Z,-1.96
2018-02-11T14:40:59.151Z,-2.04
2018-02-11T14:42:09.138Z,-2.07
2018-02-11T14:43:19.129Z,-1.99
2018-02-11T14:44:29.110Z,-1.94
2018-02-11T14:45:39.087Z,-1.9
2018-02-11T14:46:48.275Z,-1.92
2018-02-11T14:47:58.255Z,-1.89
2018-02-11T14:49:08.026Z,-1.99
2018-02-11T14:50:18.020Z,-1.97
2018-02-11T14:51:27.737Z,-1.94
2018-02-11T14:52:37.445Z,-1.96
2018-02-11T14:53:47.444Z,-1.96
2018-02-11T14:54:57.420Z,-2.04
2018-02-11T14:56:07.136Z,-2.02
2018-02-11T14:57:16.851Z,-1.96
2018-02-11T14:58:26.590Z,-1.9
2018-02-11T14:59:35.774Z,-1.94
2018-02-11T15:00:45.223Z,-1.86
2018-02-11T15:01:55.205Z,-1.93
2018-02-11T15:03:05.182Z,-1.87
2018-02-11T15:04:14.897Z,-1.94
2018-02-11T15:05:24.614Z,-1.94